Latest Weather Observations for Solomon Airport

IDW60801

Issued at 4:04 pm WST Monday 25 September 2017 (issued every 30 minutes, with the page automatically refreshed every 10 minutes)

About weather observations | Map of weather stations | Latest weather observations for WA | Other Formats
Station Details ID: 505060 Name: SOLOMON AIRPORT Lat: -22.25 Lon: 117.85 Height: 611.47 m
Data from the previous 72 hours. | See also: Recent months for locations in Western Australia
Date/Time
WST
Temp
°C
App
Temp
°C
Dew
Point
°C
Rel
Hum
%
Delta-T
°C
Wind Press
QNH
hPa
Press
MSL
hPa
Rain since
9am
mm
Dir  Spd
km/h
Gust
km/h
Spd
kts
Gust
kts
25/04:00pm 23.6 18.5 7.7 36 8.6 SW 24 37 13 20 1010.6 1007.0 0.2
25/03:30pm 23.5 18.1 8.0 37 8.4 WSW 26 39 14 21 1010.7 1007.1 0.2
25/03:00pm 23.8 18.8 8.2 37 8.5 W 24 35 13 19 1010.8 1007.3 0.2
25/02:30pm 23.7 18.6 9.3 40 8.0 WSW 26 35 14 19 1011.2 1007.7 0.2
25/02:00pm 22.8 18.0 8.9 41 7.7 WSW 24 46 13 25 1011.6 1008.1 0.2
25/01:57pm 23.1 18.0 9.1 41 7.7 WSW 26 46 14 25 1011.6 1008.1 0.2
25/01:30pm 23.5 17.6 9.1 40 8.0 WSW 30 43 16 23 1011.8 1008.3 0.0
25/01:00pm 23.1 18.2 8.4 39 8.0 WSW 24 39 13 21 1011.9 1008.4 0.0
25/12:30pm 22.4 17.4 8.1 40 7.7 WSW 24 39 13 21 1012.5 1009.0 0.0
25/12:02pm 22.8 17.8 8.1 39 8.0 WSW 24 50 13 27 1012.5 1009.0 0.0
25/12:00pm 22.7 17.7 8.0 39 8.0 WSW 24 37 13 20 1012.8 1009.3 0.0
25/11:30am 22.3 17.6 7.7 39 7.8 WSW 22 39 12 21 1013.2 1009.7 0.0
25/11:00am 21.1 16.1 8.0 43 7.0 WSW 24 37 13 20 1013.6 1010.2 0.0
25/10:30am 20.4 15.2 7.4 43 6.9 WSW 24 39 13 21 1014.0 1010.5 0.0
25/10:00am 20.1 14.5 7.1 43 6.8 WSW 26 41 14 22 1014.3 1010.8 0.0
25/09:30am 18.8 13.5 6.6 45 6.3 WSW 24 33 13 18 1014.6 1011.1 0.0
25/09:00am 17.7 13.4 7.7 52 5.2 WSW 20 30 11 16 1014.6 1011.1 0.0
25/08:30am 17.4 13.1 8.0 54 4.9 WSW 20 30 11 16 1014.7 1011.2 0.0
25/08:00am 16.2 11.8 8.9 62 3.9 WSW 22 28 12 15 1014.7 1011.2 0.0
25/07:30am 15.9 11.0 8.6 62 3.8 WSW 24 32 13 17 1014.5 1011.0 0.0
25/07:00am 15.0 12.7 8.9 67 3.2 W 11 19 6 10 1014.2 1010.7 0.0
25/06:30am 13.8 11.9 9.0 73 2.5 WNW 9 11 5 6 1013.7 1010.3 0.0
25/06:00am 13.5 12.0 9.0 74 2.4 WNW 7 9 4 5 1013.6 1010.2 0.0
25/05:30am 14.2 12.3 9.0 71 2.7 W 9 13 5 7 1013.5 1010.0 0.0
25/05:00am 14.6 12.4 9.2 70 2.9 W 11 17 6 9 1013.3 1009.8 0.0
25/04:30am 14.9 11.6 9.5 70 2.9 WSW 17 22 9 12 1012.9 1009.4 0.0
25/04:00am 14.9 11.6 9.5 70 2.9 WSW 17 26 9 14 1012.8 1009.3 0.0
25/03:30am 14.8 12.2 9.2 69 3.0 WSW 13 20 7 11 1012.7 1009.2 0.0
25/03:00am 15.2 11.4 9.1 67 3.2 WSW 19 24 10 13 1012.7 1009.2 0.0
25/02:30am 15.6 11.2 9.1 65 3.4 WSW 22 30 12 16 1012.6 1009.1 0.0
25/02:00am 16.3 12.5 9.0 62 3.9 WSW 19 26 10 14 1012.5 1009.0 0.0
25/01:30am 16.1 13.4 9.1 63 3.7 W 13 19 7 10 1012.6 1009.1 0.0
25/01:00am 16.1 13.5 9.3 64 3.6 W 13 17 7 9 1012.6 1009.1 0.0
25/12:30am 17.1 13.4 9.5 61 4.1 WSW 19 22 10 12 1012.6 1009.1 0.0
25/12:00am 17.5 14.1 9.2 58 4.5 W 17 22 9 12 1012.5 1009.0 0.0
 
Date/Time
WST
Temp
°C
App
Temp
°C
Dew
Point
°C
Rel
Hum
%
Delta-T
°C
Wind Press
QNH
hPa
Press
MSL
hPa
Rain since
9am
mm
Dir  Spd
km/h
Gust
km/h
Spd
kts
Gust
kts
24/11:30pm 17.4 14.2 8.3 55 4.8 W 15 20 8 11 1012.5 1009.0 0.0
24/11:00pm 17.2 13.9 6.4 49 5.5 W 13 15 7 8 1012.4 1008.9 0.0
24/10:30pm 17.5 14.5 6.1 47 5.8 W 11 15 6 8 1012.5 1009.0 0.0
24/10:00pm 17.8 15.1 5.4 44 6.2 WSW 9 11 5 6 1012.7 1009.2 0.0
24/09:30pm 17.8 15.0 5.1 43 6.3 WSW 9 13 5 7 1012.8 1009.3 0.0
24/09:00pm 18.0 15.7 4.9 42 6.5 SW 6 9 3 5 1012.7 1009.2 0.0
24/08:30pm 18.3 15.5 5.2 42 6.5 W 9 11 5 6 1012.4 1008.9 0.0
24/08:00pm 18.7 15.8 4.8 40 6.9 W 9 11 5 6 1012.1 1008.7 0.0
24/07:30pm 20.6 17.0 5.0 36 7.9 W 13 17 7 9 1011.7 1008.2 0.0
24/07:00pm 21.6 17.6 4.7 33 8.6 WSW 15 19 8 10 1011.5 1008.0 0.0
24/06:30pm 22.4 17.6 4.5 31 9.1 WSW 19 24 10 13 1011.2 1007.7 0.0
24/06:00pm 23.3 18.0 4.8 30 9.5 WSW 22 30 12 16 1011.0 1007.5 0.0
24/05:30pm 24.1 18.6 4.0 27 10.2 WSW 22 30 12 16 1010.8 1007.3 0.0
24/05:00pm 25.1 19.3 4.3 26 10.7 SW 24 35 13 19 1010.7 1007.1 0.0
24/04:30pm 24.9 19.0 4.1 26 10.6 WSW 24 33 13 18 1010.6 1007.0 0.0
24/04:00pm 25.8 20.0 4.3 25 11.1 WSW 24 33 13 18 1010.6 1007.0 0.0
24/03:30pm 25.7 20.1 3.6 24 11.3 WSW 22 35 12 19 1010.7 1007.1 0.0
24/03:00pm 25.1 19.2 3.7 25 10.9 W 24 37 13 20 1010.8 1007.3 0.0
24/02:30pm 25.5 20.5 4.6 26 10.8 W 20 33 11 18 1011.0 1007.5 0.0
24/02:00pm 24.5 19.3 3.8 26 10.5 W 20 35 11 19 1011.5 1008.0 0.0
24/01:30pm 24.6 19.4 3.8 26 10.6 WSW 20 33 11 18 1011.8 1008.3 0.0
24/01:00pm 24.1 20.0 4.5 28 10.0 WSW 15 32 8 17 1012.3 1008.8 0.0
24/12:30pm 23.0 19.8 5.0 31 9.2 W 11 26 6 14 1012.7 1009.2 0.0
24/12:00pm 22.5 19.0 5.4 33 8.8 WSW 13 24 7 13 1013.0 1009.5 0.0
24/11:30am 22.0 18.4 6.7 37 8.1 SSW 15 24 8 13 1013.6 1010.2 0.0
24/11:00am 20.7 17.1 6.6 40 7.4 WSW 15 26 8 14 1014.2 1010.7 0.0
24/10:30am 20.5 16.1 6.5 40 7.3 WSW 19 30 10 16 1014.5 1011.0 0.0
24/10:00am 19.0 14.7 6.8 45 6.3 SW 19 26 10 14 1014.9 1011.4 0.0
24/09:30am 19.0 14.7 7.1 46 6.2 SW 19 26 10 14 1015.0 1011.5 0.0
24/09:00am 18.2 13.7 7.0 48 5.8 SW 20 26 11 14 1015.2 1011.8 0.0
24/08:30am 17.1 13.3 7.5 53 5.0 SW 17 30 9 16 1015.3 1011.9 0.0
24/08:00am 16.5 12.3 7.4 55 4.7 WSW 19 26 10 14 1015.2 1011.8 0.0
24/07:30am 14.8 13.1 7.4 61 3.8 SW 6 11 3 6 1015.0 1011.5 0.0
24/07:00am 13.8 11.5 7.3 65 3.3 WSW 9 13 5 7 1014.6 1011.1 0.0
24/06:30am 13.4 11.4 7.0 65 3.2 WSW 7 11 4 6 1014.3 1010.8 0.0
24/06:00am 13.2 10.8 7.0 66 3.1 SW 9 13 5 7 1014.3 1010.8 0.0
24/05:30am 13.4 10.5 6.7 64 3.3 SW 11 15 6 8 1014.1 1010.6 0.0
24/05:00am 13.5 10.6 6.6 63 3.4 SW 11 15 6 8 1014.0 1010.5 0.0
24/04:30am 14.0 12.0 6.4 60 3.8 SW 6 7 3 4 1013.7 1010.3 0.0
24/04:00am 13.9 12.1 5.3 56 4.2 W 4 7 2 4 1013.5 1010.0 0.0
24/03:30am 14.3 11.6 3.7 49 5.0 W 7 11 4 6 1013.3 1009.8 0.0
24/03:00am 14.0 11.5 3.8 50 4.8 W 6 7 3 4 1013.5 1010.0 0.0
24/02:30am 14.9 12.9 4.3 49 5.1 W 4 7 2 4 1013.5 1010.0 0.0
24/02:00am 16.8 13.9 4.8 45 5.9 WSW 9 15 5 8 1013.8 1010.4 0.0
24/01:30am 17.0 13.3 4.7 44 6.0 W 13 15 7 8 1014.0 1010.5 0.0
24/01:00am 17.3 13.8 5.3 45 6.0 W 13 20 7 11 1014.3 1010.8 0.0
24/12:30am 16.0 13.7 4.7 47 5.5 W 6 9 3 5 1014.4 1010.9 0.0
24/12:00am 17.2 15.0 5.2 45 6.0 W 6 9 3 5 1014.5 1011.0 0.0
 
Date/Time
WST
Temp
°C
App
Temp
°C
Dew
Point
°C
Rel
Hum
%
Delta-T
°C
Wind Press
QNH
hPa
Press
MSL
hPa
Rain since
9am
mm
Dir  Spd
km/h
Gust
km/h
Spd
kts
Gust
kts
23/11:30pm 18.6 15.4 5.1 41 6.7 W 11 17 6 9 1014.7 1011.2 0.0
23/11:00pm 19.5 15.7 5.6 40 7.1 WSW 15 20 8 11 1014.8 1011.3 0.0
23/10:30pm 19.6 16.0 4.9 38 7.4 W 13 19 7 10 1014.9 1011.4 0.0
23/10:00pm 20.3 15.9 4.8 36 7.8 W 17 20 9 11 1014.9 1011.4 0.0
23/09:30pm 20.9 16.5 4.9 35 8.1 WSW 17 26 9 14 1015.1 1011.7 0.0
23/09:00pm 21.4 16.9 4.0 32 8.7 W 17 22 9 12 1014.9 1011.4 0.0
23/08:30pm 20.8 16.8 3.1 31 8.6 W 13 17 7 9 1014.7 1011.2 0.0
23/08:00pm 21.6 17.6 2.8 29 9.2 W 13 17 7 9 1014.5 1011.0 0.0
23/07:30pm 22.2 18.4 1.8 26 9.8 W 11 15 6 8 1014.2 1010.7 0.0
23/07:00pm 23.4 19.1 1.1 23 10.7 W 13 19 7 10 1013.8 1010.4 0.0
23/06:30pm 24.6 20.3 0.8 21 11.4 W 13 19 7 10 1013.5 1010.0 0.0
23/06:00pm 26.0 20.5 0.6 19 12.3 WSW 19 28 10 15 1013.3 1009.8 0.0
23/05:30pm 27.4 21.7 -3.4 13 14.0 WNW 17 26 9 14 1013.0 1009.5 0.0
23/05:00pm 28.2 22.4 -1.8 14 14.1 WNW 19 30 10 16 1012.9 1009.4 0.0
23/04:30pm 28.5 22.2 -3.6 12 14.7 W 20 33 11 18 1012.8 1009.3 0.0
23/04:00pm 29.3 24.2 -1.9 13 14.8 WNW 15 24 8 13 1012.6 1009.1 0.0
23/03:30pm 29.7 24.1 -2.7 12 15.2 W 17 26 9 14 1012.7 1009.2 0.0
23/03:00pm 28.8 22.8 -1.3 14 14.4 W 20 35 11 19 1013.0 1009.5 0.0
23/02:30pm 28.5 22.1 -1.6 14 14.2 W 22 37 12 20 1013.4 1009.9 0.0
23/02:00pm 29.0 21.5 -1.2 14 14.4 W 28 41 15 22 1013.7 1010.3 0.0
23/01:30pm 28.7 22.5 -0.5 15 14.1 WSW 22 33 12 18 1014.1 1010.6 0.0
23/01:00pm 28.3 22.5 0.1 16 13.7 WSW 20 37 11 20 1014.6 1011.1 0.0
23/12:47pm 28.3 22.7 0.9 17 13.5 WSW 20 50 11 27 1014.8 1011.3 0.0
23/12:46pm 28.2 22.7 0.9 17 13.5 WSW 19 43 10 23 1014.9 1011.4 0.0
23/12:30pm 27.0 22.8 1.4 19 12.6 WSW 13 32 7 17 1015.2 1011.8 0.0
23/12:00pm 26.3 21.3 3.5 23 11.6 WSW 19 37 10 20 1016.0 1012.5 0.0
23/11:30am 24.9 19.8 4.1 26 10.6 W 20 30 11 16 1016.4 1012.9 0.0
23/11:00am 24.1 20.5 5.0 29 9.9 WSW 13 20 7 11 1016.6 1013.2 0.0
23/10:30am 23.3 19.2 6.1 33 9.0 WSW 17 24 9 13 1016.8 1013.4 0.0
23/10:00am 22.3 18.9 7.7 39 7.8 SW 15 30 8 16 1017.0 1013.6 0.0
23/09:30am 21.2 18.4 8.5 44 6.9 SW 13 22 7 12 1017.1 1013.7 0.0
23/09:00am 19.8 17.0 8.5 48 6.1 SW 13 20 7 11 1017.1 1013.7 0.0
23/08:30am 19.2 16.6 9.4 53 5.3 SW 13 20 7 11 1017.2 1013.8 0.0
23/08:00am 18.3 15.0 9.4 56 4.8 SW 17 22 9 12 1017.0 1013.6 0.0
23/07:30am 17.1 13.4 9.3 60 4.2 SW 19 24 10 13 1016.7 1013.3 0.0
23/07:00am 16.2 12.9 9.6 65 3.5 WSW 17 20 9 11 1016.4 1012.9 0.0
23/06:30am 15.6 12.7 9.7 68 3.2 WSW 15 19 8 10 1016.3 1012.8 0.0
23/06:00am 15.4 13.3 9.7 69 3.1 WSW 11 15 6 8 1016.0 1012.5 0.0
23/05:30am 15.8 13.0 9.9 68 3.2 SW 15 17 8 9 1015.8 1012.3 0.0
23/05:00am 16.2 13.4 10.1 67 3.3 SW 15 19 8 10 1015.6 1012.2 0.0
23/04:30am 16.2 13.9 10.3 68 3.2 WSW 13 15 7 8 1015.3 1011.9 0.0
23/04:00am 16.7 14.7 10.3 66 3.5 WSW 11 13 6 7 1015.0 1011.5 0.0
23/03:30am 16.9 15.1 10.7 67 3.4 W 11 15 6 8 1015.0 1011.5 0.0
23/03:00am 16.2 15.0 10.3 68 3.2 W 7 9 4 5 1015.0 1011.5 0.0
23/02:30am 17.2 14.9 10.6 65 3.6 W 13 15 7 8 1015.0 1011.5 0.0
23/02:00am 16.9 14.9 10.3 65 3.6 W 11 13 6 7 1015.2 1011.8 0.0
23/01:30am 18.3 16.8 10.4 60 4.4 W 9 11 5 6 1015.4 1012.0 0.0
23/01:00am 18.8 16.8 10.1 57 4.8 W 11 15 6 8 1015.6 1012.2 0.0
23/12:30am 20.0 18.1 10.4 54 5.3 WSW 11 15 6 8 1015.8 1012.3 0.0
23/12:00am 21.0 18.4 10.8 52 5.7 WSW 15 19 8 10 1016.0 1012.5 0.0
 
Date/Time
WST
Temp
°C
App
Temp
°C
Dew
Point
°C
Rel
Hum
%
Delta-T
°C
Wind Press
QNH
hPa
Press
MSL
hPa
Rain since
9am
mm
Dir  Spd
km/h
Gust
km/h
Spd
kts
Gust
kts
22/11:30pm 21.1 18.5 9.4 47 6.4 WSW 13 15 7 8 1016.1 1012.6 0.0
22/11:00pm 21.8 18.6 8.3 42 7.3 WSW 15 22 8 12 1016.2 1012.7 0.0
22/10:30pm 22.0 18.2 5.8 35 8.4 WSW 15 19 8 10 1016.2 1012.7 0.0
22/10:00pm 22.5 18.9 5.0 32 9.0 W 13 17 7 9 1016.0 1012.5 0.0
22/09:30pm 23.2 19.5 4.7 30 9.5 W 13 19 7 10 1015.8 1012.3 0.0
22/09:00pm 24.2 19.4 4.6 28 10.1 W 19 22 10 12 1015.6 1012.2 0.0
22/08:30pm 24.3 20.1 3.6 26 10.4 W 15 20 8 11 1015.5 1012.1 0.0
22/08:00pm 24.9 20.3 3.5 25 10.8 WSW 17 26 9 14 1015.1 1011.7 0.0
22/07:30pm 24.6 20.6 2.7 24 10.9 W 13 17 7 9 1014.8 1011.3 0.0
22/07:00pm 26.5 21.7 2.4 21 12.1 WSW 17 22 9 12 1014.5 1011.0 0.0
22/06:30pm 27.4 21.9 1.8 19 12.8 WSW 20 32 11 17 1014.2 1010.7 0.0
22/06:00pm 28.7 22.5 -0.5 15 14.1 WSW 22 30 12 16 1013.8 1010.4 0.0
22/05:30pm 30.0 24.0 -1.4 13 15.1 WSW 20 26 11 14 1013.4 1009.9 0.0
22/05:00pm 30.7 24.3 -1.9 12 15.6 W 22 35 12 19 1013.1 1009.6 0.0
22/04:30pm 31.2 25.2 -1.5 12 15.8 W 20 32 11 17 1013.1 1009.6 0.0

Other Formats:

Comma delimited format used in spreadsheet applications
http://www.bom.gov.au/fwo/IDW60801/IDW60801.99217.axf

JavaScript Object Notation format (JSON) in row-major order
http://www.bom.gov.au/fwo/IDW60801/IDW60801.99217.json